sensor_id;sensor_type;location;lat;lon;timestamp;P1;durP1;ratioP1;P2;durP2;ratioP2
2161;SDS011;1087;50.226;8.682;2022-12-29T00:01:52;3.23;;;2.80;;
2161;SDS011;1087;50.226;8.682;2022-12-29T00:04:17;3.87;;;3.43;;
2161;SDS011;1087;50.226;8.682;2022-12-29T00:06:43;5.77;;;3.27;;
2161;SDS011;1087;50.226;8.682;2022-12-29T00:09:12;3.13;;;2.93;;
2161;SDS011;1087;50.226;8.682;2022-12-29T00:11:38;2.80;;;2.60;;
2161;SDS011;1087;50.226;8.682;2022-12-29T00:14:04;4.47;;;3.27;;
2161;SDS011;1087;50.226;8.682;2022-12-29T00:16:48;6.33;;;3.00;;
2161;SDS011;1087;50.226;8.682;2022-12-29T00:19:13;6.37;;;3.80;;
2161;SDS011;1087;50.226;8.682;2022-12-29T00:21:58;3.30;;;3.00;;
2161;SDS011;1087;50.226;8.682;2022-12-29T00:24:43;4.53;;;3.00;;
2161;SDS011;1087;50.226;8.682;2022-12-29T00:27:28;4.17;;;3.23;;
2161;SDS011;1087;50.226;8.682;2022-12-29T00:30:13;5.50;;;3.03;;
2161;SDS011;1087;50.226;8.682;2022-12-29T00:33:18;4.03;;;3.63;;
2161;SDS011;1087;50.226;8.682;2022-12-29T00:36:04;3.43;;;3.07;;
2161;SDS011;1087;50.226;8.682;2022-12-29T00:39:02;4.50;;;3.90;;
2161;SDS011;1087;50.226;8.682;2022-12-29T00:41:50;3.83;;;3.30;;
2161;SDS011;1087;50.226;8.682;2022-12-29T00:44:34;3.77;;;3.37;;
2161;SDS011;1087;50.226;8.682;2022-12-29T00:47:00;4.27;;;3.87;;
2161;SDS011;1087;50.226;8.682;2022-12-29T00:49:28;5.17;;;3.60;;
2161;SDS011;1087;50.226;8.682;2022-12-29T00:51:57;4.77;;;3.33;;
2161;SDS011;1087;50.226;8.682;2022-12-29T00:54:23;6.87;;;3.87;;
2161;SDS011;1087;50.226;8.682;2022-12-29T00:56:49;4.80;;;3.60;;
2161;SDS011;1087;50.226;8.682;2022-12-29T00:59:15;3.73;;;2.97;;
2161;SDS011;1087;50.226;8.682;2022-12-29T01:01:42;4.53;;;3.10;;
2161;SDS011;1087;50.226;8.682;2022-12-29T01:04:09;4.00;;;3.60;;
2161;SDS011;1087;50.226;8.682;2022-12-29T01:06:35;4.80;;;3.53;;
2161;SDS011;1087;50.226;8.682;2022-12-29T01:09:05;3.90;;;3.50;;
2161;SDS011;1087;50.226;8.682;2022-12-29T01:11:50;3.20;;;2.90;;
2161;SDS011;1087;50.226;8.682;2022-12-29T01:14:16;3.83;;;2.97;;
2161;SDS011;1087;50.226;8.682;2022-12-29T01:16:43;3.40;;;2.77;;
2161;SDS011;1087;50.226;8.682;2022-12-29T01:19:08;3.17;;;2.87;;
2161;SDS011;1087;50.226;8.682;2022-12-29T01:21:34;4.27;;;3.20;;
2161;SDS011;1087;50.226;8.682;2022-12-29T01:24:00;3.97;;;3.53;;
2161;SDS011;1087;50.226;8.682;2022-12-29T01:26:25;3.30;;;2.70;;
2161;SDS011;1087;50.226;8.682;2022-12-29T01:28:51;4.10;;;3.10;;
2161;SDS011;1087;50.226;8.682;2022-12-29T01:31:16;3.73;;;2.67;;
2161;SDS011;1087;50.226;8.682;2022-12-29T01:33:42;3.20;;;2.90;;
2161;SDS011;1087;50.226;8.682;2022-12-29T01:36:09;4.83;;;2.90;;
2161;SDS011;1087;50.226;8.682;2022-12-29T01:38:37;3.70;;;2.93;;
2161;SDS011;1087;50.226;8.682;2022-12-29T01:41:04;3.40;;;3.10;;
2161;SDS011;1087;50.226;8.682;2022-12-29T01:46:36;3.07;;;2.77;;
2161;SDS011;1087;50.226;8.682;2022-12-29T01:49:15;4.80;;;3.30;;
2161;SDS011;1087;50.226;8.682;2022-12-29T01:51:51;3.10;;;2.77;;
2161;SDS011;1087;50.226;8.682;2022-12-29T01:54:27;2.53;;;2.33;;
2161;SDS011;1087;50.226;8.682;2022-12-29T01:56:55;2.80;;;2.60;;
2161;SDS011;1087;50.226;8.682;2022-12-29T01:59:24;5.20;;;3.47;;
2161;SDS011;1087;50.226;8.682;2022-12-29T02:01:55;3.50;;;2.60;;
2161;SDS011;1087;50.226;8.682;2022-12-29T02:04:21;3.87;;;2.70;;
2161;SDS011;1087;50.226;8.682;2022-12-29T02:06:51;4.23;;;2.77;;
2161;SDS011;1087;50.226;8.682;2022-12-29T02:09:22;4.43;;;2.37;;
2161;SDS011;1087;50.226;8.682;2022-12-29T02:11:48;4.00;;;2.73;;
2161;SDS011;1087;50.226;8.682;2022-12-29T02:14:14;3.80;;;3.17;;
2161;SDS011;1087;50.226;8.682;2022-12-29T02:17:02;3.37;;;2.63;;
2161;SDS011;1087;50.226;8.682;2022-12-29T02:25:00;2.83;;;2.60;;
2161;SDS011;1087;50.226;8.682;2022-12-29T02:44:24;2.47;;;2.27;;
2161;SDS011;1087;50.226;8.682;2022-12-29T02:46:58;2.40;;;2.20;;
2161;SDS011;1087;50.226;8.682;2022-12-29T02:52:02;4.43;;;3.00;;
2161;SDS011;1087;50.226;8.682;2022-12-29T02:54:31;2.70;;;2.50;;
2161;SDS011;1087;50.226;8.682;2022-12-29T02:59:57;3.30;;;2.50;;
2161;SDS011;1087;50.226;8.682;2022-12-29T03:02:45;2.63;;;2.43;;
2161;SDS011;1087;50.226;8.682;2022-12-29T03:05:39;2.73;;;2.00;;
2161;SDS011;1087;50.226;8.682;2022-12-29T03:08:31;2.70;;;2.23;;
2161;SDS011;1087;50.226;8.682;2022-12-29T03:16:22;3.30;;;2.00;;
2161;SDS011;1087;50.226;8.682;2022-12-29T03:19:05;2.60;;;2.40;;
2161;SDS011;1087;50.226;8.682;2022-12-29T03:24:51;3.83;;;2.30;;
2161;SDS011;1087;50.226;8.682;2022-12-29T03:27:20;2.40;;;2.00;;
2161;SDS011;1087;50.226;8.682;2022-12-29T03:29:51;2.63;;;2.27;;
2161;SDS011;1087;50.226;8.682;2022-12-29T03:32:20;2.67;;;2.10;;
2161;SDS011;1087;50.226;8.682;2022-12-29T03:34:49;2.57;;;1.90;;
2161;SDS011;1087;50.226;8.682;2022-12-29T03:37:17;2.00;;;1.83;;
2161;SDS011;1087;50.226;8.682;2022-12-29T03:39:45;2.97;;;2.10;;
2161;SDS011;1087;50.226;8.682;2022-12-29T03:42:13;3.30;;;2.17;;
2161;SDS011;1087;50.226;8.682;2022-12-29T03:44:43;3.73;;;2.13;;
2161;SDS011;1087;50.226;8.682;2022-12-29T03:47:13;5.53;;;2.10;;
2161;SDS011;1087;50.226;8.682;2022-12-29T03:49:40;2.17;;;1.70;;
2161;SDS011;1087;50.226;8.682;2022-12-29T03:52:05;2.13;;;1.93;;
2161;SDS011;1087;50.226;8.682;2022-12-29T03:54:31;2.00;;;1.90;;
2161;SDS011;1087;50.226;8.682;2022-12-29T03:56:57;3.47;;;2.10;;
2161;SDS011;1087;50.226;8.682;2022-12-29T03:59:23;3.10;;;2.03;;
2161;SDS011;1087;50.226;8.682;2022-12-29T04:01:48;2.20;;;2.00;;
2161;SDS011;1087;50.226;8.682;2022-12-29T04:04:14;3.13;;;2.17;;
2161;SDS011;1087;50.226;8.682;2022-12-29T04:06:39;3.30;;;2.33;;
2161;SDS011;1087;50.226;8.682;2022-12-29T04:09:05;2.60;;;2.30;;
2161;SDS011;1087;50.226;8.682;2022-12-29T04:11:31;3.40;;;2.17;;
2161;SDS011;1087;50.226;8.682;2022-12-29T04:13:56;2.50;;;2.30;;
2161;SDS011;1087;50.226;8.682;2022-12-29T04:16:22;3.13;;;2.20;;
2161;SDS011;1087;50.226;8.682;2022-12-29T04:18:47;2.30;;;2.03;;
2161;SDS011;1087;50.226;8.682;2022-12-29T04:21:13;2.70;;;1.90;;
2161;SDS011;1087;50.226;8.682;2022-12-29T04:23:38;3.70;;;2.23;;
2161;SDS011;1087;50.226;8.682;2022-12-29T04:26:04;3.77;;;2.23;;
2161;SDS011;1087;50.226;8.682;2022-12-29T04:28:34;4.30;;;2.30;;
2161;SDS011;1087;50.226;8.682;2022-12-29T04:31:00;2.23;;;2.03;;
2161;SDS011;1087;50.226;8.682;2022-12-29T04:33:26;2.93;;;2.03;;
2161;SDS011;1087;50.226;8.682;2022-12-29T04:35:52;2.53;;;2.33;;
2161;SDS011;1087;50.226;8.682;2022-12-29T04:38:19;3.90;;;2.77;;
2161;SDS011;1087;50.226;8.682;2022-12-29T04:40:45;3.17;;;2.70;;
2161;SDS011;1087;50.226;8.682;2022-12-29T04:43:11;3.80;;;2.47;;
2161;SDS011;1087;50.226;8.682;2022-12-29T04:45:38;2.07;;;1.97;;
2161;SDS011;1087;50.226;8.682;2022-12-29T04:48:07;3.50;;;3.20;;
2161;SDS011;1087;50.226;8.682;2022-12-29T04:50:33;3.30;;;2.63;;
2161;SDS011;1087;50.226;8.682;2022-12-29T04:52:58;3.50;;;2.77;;
2161;SDS011;1087;50.226;8.682;2022-12-29T04:55:24;3.80;;;3.20;;
2161;SDS011;1087;50.226;8.682;2022-12-29T04:57:49;4.17;;;2.33;;
2161;SDS011;1087;50.226;8.682;2022-12-29T05:00:15;4.00;;;2.40;;
2161;SDS011;1087;50.226;8.682;2022-12-29T05:02:40;2.67;;;2.23;;
2161;SDS011;1087;50.226;8.682;2022-12-29T05:05:06;3.00;;;2.30;;
2161;SDS011;1087;50.226;8.682;2022-12-29T05:07:33;3.30;;;1.97;;
2161;SDS011;1087;50.226;8.682;2022-12-29T05:09:59;2.40;;;2.10;;
2161;SDS011;1087;50.226;8.682;2022-12-29T05:12:25;4.13;;;2.70;;
2161;SDS011;1087;50.226;8.682;2022-12-29T05:14:50;2.63;;;2.43;;
2161;SDS011;1087;50.226;8.682;2022-12-29T05:17:16;2.80;;;2.17;;
2161;SDS011;1087;50.226;8.682;2022-12-29T05:19:41;2.30;;;2.10;;
2161;SDS011;1087;50.226;8.682;2022-12-29T05:22:07;1.97;;;1.70;;
2161;SDS011;1087;50.226;8.682;2022-12-29T05:24:32;2.77;;;1.90;;
2161;SDS011;1087;50.226;8.682;2022-12-29T05:26:58;2.23;;;2.03;;
2161;SDS011;1087;50.226;8.682;2022-12-29T05:29:23;3.40;;;2.53;;
2161;SDS011;1087;50.226;8.682;2022-12-29T05:31:49;4.37;;;2.20;;
2161;SDS011;1087;50.226;8.682;2022-12-29T05:34:14;2.87;;;2.13;;
2161;SDS011;1087;50.226;8.682;2022-12-29T05:36:40;2.63;;;2.20;;
2161;SDS011;1087;50.226;8.682;2022-12-29T05:39:06;2.50;;;2.17;;
2161;SDS011;1087;50.226;8.682;2022-12-29T05:41:32;2.50;;;2.30;;
2161;SDS011;1087;50.226;8.682;2022-12-29T05:43:58;2.13;;;1.90;;
2161;SDS011;1087;50.226;8.682;2022-12-29T05:46:24;2.70;;;2.27;;
2161;SDS011;1087;50.226;8.682;2022-12-29T05:48:50;2.80;;;2.27;;
2161;SDS011;1087;50.226;8.682;2022-12-29T05:51:15;2.47;;;2.27;;
2161;SDS011;1087;50.226;8.682;2022-12-29T05:53:41;2.90;;;2.57;;
2161;SDS011;1087;50.226;8.682;2022-12-29T05:56:06;3.47;;;2.27;;
2161;SDS011;1087;50.226;8.682;2022-12-29T05:58:32;2.93;;;2.60;;
2161;SDS011;1087;50.226;8.682;2022-12-29T06:00:57;4.53;;;3.10;;
2161;SDS011;1087;50.226;8.682;2022-12-29T06:03:23;3.83;;;2.60;;
2161;SDS011;1087;50.226;8.682;2022-12-29T06:05:48;4.10;;;2.50;;
2161;SDS011;1087;50.226;8.682;2022-12-29T06:08:14;2.77;;;2.43;;
2161;SDS011;1087;50.226;8.682;2022-12-29T06:10:40;2.63;;;2.33;;
2161;SDS011;1087;50.226;8.682;2022-12-29T06:13:05;3.87;;;2.20;;
2161;SDS011;1087;50.226;8.682;2022-12-29T06:15:31;4.20;;;2.20;;
2161;SDS011;1087;50.226;8.682;2022-12-29T06:17:57;2.90;;;2.33;;
2161;SDS011;1087;50.226;8.682;2022-12-29T06:20:23;3.90;;;2.47;;
2161;SDS011;1087;50.226;8.682;2022-12-29T06:22:48;4.40;;;2.40;;
2161;SDS011;1087;50.226;8.682;2022-12-29T06:25:14;3.40;;;2.50;;
2161;SDS011;1087;50.226;8.682;2022-12-29T06:27:40;3.30;;;2.83;;
2161;SDS011;1087;50.226;8.682;2022-12-29T06:30:07;2.43;;;2.23;;
2161;SDS011;1087;50.226;8.682;2022-12-29T06:32:33;3.43;;;2.60;;
2161;SDS011;1087;50.226;8.682;2022-12-29T06:34:59;3.30;;;2.77;;
2161;SDS011;1087;50.226;8.682;2022-12-29T06:37:25;4.33;;;2.57;;
2161;SDS011;1087;50.226;8.682;2022-12-29T06:39:50;3.83;;;2.63;;
2161;SDS011;1087;50.226;8.682;2022-12-29T06:42:16;2.53;;;2.33;;
2161;SDS011;1087;50.226;8.682;2022-12-29T06:44:41;2.20;;;2.00;;
2161;SDS011;1087;50.226;8.682;2022-12-29T06:47:07;3.90;;;2.30;;
2161;SDS011;1087;50.226;8.682;2022-12-29T06:49:33;4.33;;;2.20;;
2161;SDS011;1087;50.226;8.682;2022-12-29T06:51:58;3.00;;;1.93;;
2161;SDS011;1087;50.226;8.682;2022-12-29T06:54:25;2.90;;;2.10;;
2161;SDS011;1087;50.226;8.682;2022-12-29T06:56:51;2.20;;;2.00;;
2161;SDS011;1087;50.226;8.682;2022-12-29T06:59:17;3.07;;;1.60;;
2161;SDS011;1087;50.226;8.682;2022-12-29T07:01:42;2.80;;;1.80;;
2161;SDS011;1087;50.226;8.682;2022-12-29T07:04:08;3.50;;;2.17;;
2161;SDS011;1087;50.226;8.682;2022-12-29T07:06:33;2.60;;;2.40;;
2161;SDS011;1087;50.226;8.682;2022-12-29T07:08:59;2.00;;;1.90;;
2161;SDS011;1087;50.226;8.682;2022-12-29T07:11:24;3.10;;;2.77;;
2161;SDS011;1087;50.226;8.682;2022-12-29T07:13:50;2.47;;;2.20;;
2161;SDS011;1087;50.226;8.682;2022-12-29T07:16:15;4.23;;;2.50;;
2161;SDS011;1087;50.226;8.682;2022-12-29T07:18:41;2.97;;;2.77;;
2161;SDS011;1087;50.226;8.682;2022-12-29T07:21:07;4.23;;;2.60;;
2161;SDS011;1087;50.226;8.682;2022-12-29T07:23:32;5.00;;;3.03;;
2161;SDS011;1087;50.226;8.682;2022-12-29T07:25:59;3.03;;;2.83;;
2161;SDS011;1087;50.226;8.682;2022-12-29T07:28:25;3.90;;;2.60;;
2161;SDS011;1087;50.226;8.682;2022-12-29T07:30:51;3.70;;;2.40;;
2161;SDS011;1087;50.226;8.682;2022-12-29T07:33:16;6.10;;;2.63;;
2161;SDS011;1087;50.226;8.682;2022-12-29T07:35:41;2.63;;;2.43;;
2161;SDS011;1087;50.226;8.682;2022-12-29T07:38:07;4.50;;;2.63;;
2161;SDS011;1087;50.226;8.682;2022-12-29T07:40:32;3.00;;;2.80;;
2161;SDS011;1087;50.226;8.682;2022-12-29T07:42:58;4.50;;;3.33;;
2161;SDS011;1087;50.226;8.682;2022-12-29T07:45:23;3.40;;;2.80;;
2161;SDS011;1087;50.226;8.682;2022-12-29T07:47:49;7.50;;;3.00;;
2161;SDS011;1087;50.226;8.682;2022-12-29T07:50:15;3.23;;;2.70;;
2161;SDS011;1087;50.226;8.682;2022-12-29T07:52:41;2.93;;;2.53;;
2161;SDS011;1087;50.226;8.682;2022-12-29T07:55:06;3.33;;;2.70;;
2161;SDS011;1087;50.226;8.682;2022-12-29T07:57:32;3.03;;;2.30;;
2161;SDS011;1087;50.226;8.682;2022-12-29T07:59:57;3.40;;;3.10;;
2161;SDS011;1087;50.226;8.682;2022-12-29T08:02:23;4.13;;;2.20;;
2161;SDS011;1087;50.226;8.682;2022-12-29T08:04:50;4.17;;;3.13;;
2161;SDS011;1087;50.226;8.682;2022-12-29T08:07:16;6.00;;;3.10;;
2161;SDS011;1087;50.226;8.682;2022-12-29T08:09:41;5.13;;;2.60;;
2161;SDS011;1087;50.226;8.682;2022-12-29T08:12:08;3.90;;;2.40;;
2161;SDS011;1087;50.226;8.682;2022-12-29T08:14:35;3.33;;;3.03;;
2161;SDS011;1087;50.226;8.682;2022-12-29T08:17:01;3.80;;;3.10;;
2161;SDS011;1087;50.226;8.682;2022-12-29T08:19:26;6.57;;;3.10;;
2161;SDS011;1087;50.226;8.682;2022-12-29T08:21:52;4.97;;;3.10;;
2161;SDS011;1087;50.226;8.682;2022-12-29T08:24:18;3.57;;;2.93;;
2161;SDS011;1087;50.226;8.682;2022-12-29T08:26:44;8.70;;;4.20;;
2161;SDS011;1087;50.226;8.682;2022-12-29T08:29:09;3.50;;;2.73;;
2161;SDS011;1087;50.226;8.682;2022-12-29T08:31:35;4.30;;;2.97;;
2161;SDS011;1087;50.226;8.682;2022-12-29T08:34:00;5.37;;;2.90;;
2161;SDS011;1087;50.226;8.682;2022-12-29T08:36:28;3.10;;;2.77;;
2161;SDS011;1087;50.226;8.682;2022-12-29T08:38:53;3.17;;;2.90;;
2161;SDS011;1087;50.226;8.682;2022-12-29T08:41:19;4.70;;;3.03;;
2161;SDS011;1087;50.226;8.682;2022-12-29T08:43:48;3.17;;;2.73;;
2161;SDS011;1087;50.226;8.682;2022-12-29T08:46:14;3.67;;;3.30;;
2161;SDS011;1087;50.226;8.682;2022-12-29T08:48:40;3.23;;;2.90;;
2161;SDS011;1087;50.226;8.682;2022-12-29T08:51:06;3.87;;;3.00;;
2161;SDS011;1087;50.226;8.682;2022-12-29T08:53:32;4.57;;;3.43;;
2161;SDS011;1087;50.226;8.682;2022-12-29T08:55:59;3.77;;;3.30;;
2161;SDS011;1087;50.226;8.682;2022-12-29T08:58:25;4.50;;;3.63;;
2161;SDS011;1087;50.226;8.682;2022-12-29T09:00:55;3.63;;;2.97;;
2161;SDS011;1087;50.226;8.682;2022-12-29T09:03:22;6.37;;;3.37;;
2161;SDS011;1087;50.226;8.682;2022-12-29T09:05:52;4.33;;;3.60;;
2161;SDS011;1087;50.226;8.682;2022-12-29T09:08:18;3.70;;;3.40;;
2161;SDS011;1087;50.226;8.682;2022-12-29T09:10:44;3.80;;;3.37;;
2161;SDS011;1087;50.226;8.682;2022-12-29T09:13:10;4.07;;;3.67;;
2161;SDS011;1087;50.226;8.682;2022-12-29T09:15:37;3.70;;;3.07;;
2161;SDS011;1087;50.226;8.682;2022-12-29T09:18:04;4.27;;;3.20;;
2161;SDS011;1087;50.226;8.682;2022-12-29T09:20:30;4.03;;;3.63;;
2161;SDS011;1087;50.226;8.682;2022-12-29T09:22:55;3.90;;;3.37;;
2161;SDS011;1087;50.226;8.682;2022-12-29T09:25:21;4.47;;;3.37;;
2161;SDS011;1087;50.226;8.682;2022-12-29T09:27:49;5.90;;;4.10;;
2161;SDS011;1087;50.226;8.682;2022-12-29T09:30:17;4.43;;;3.80;;
2161;SDS011;1087;50.226;8.682;2022-12-29T09:32:43;3.73;;;3.33;;
2161;SDS011;1087;50.226;8.682;2022-12-29T09:35:09;5.00;;;4.00;;
2161;SDS011;1087;50.226;8.682;2022-12-29T09:37:34;6.63;;;4.33;;
2161;SDS011;1087;50.226;8.682;2022-12-29T09:40:00;7.63;;;3.73;;
2161;SDS011;1087;50.226;8.682;2022-12-29T09:42:38;5.37;;;3.80;;
2161;SDS011;1087;50.226;8.682;2022-12-29T09:45:18;5.30;;;4.10;;
2161;SDS011;1087;50.226;8.682;2022-12-29T09:47:53;6.53;;;3.77;;
2161;SDS011;1087;50.226;8.682;2022-12-29T09:50:22;4.47;;;4.07;;
2161;SDS011;1087;50.226;8.682;2022-12-29T09:52:54;4.17;;;3.60;;
2161;SDS011;1087;50.226;8.682;2022-12-29T09:55:40;4.03;;;3.63;;
2161;SDS011;1087;50.226;8.682;2022-12-29T09:58:24;3.57;;;2.80;;
2161;SDS011;1087;50.226;8.682;2022-12-29T10:08:45;4.23;;;3.33;;
2161;SDS011;1087;50.226;8.682;2022-12-29T10:14:12;2.50;;;2.30;;
2161;SDS011;1087;50.226;8.682;2022-12-29T10:17:01;4.70;;;3.17;;
2161;SDS011;1087;50.226;8.682;2022-12-29T10:19:48;5.43;;;3.00;;
2161;SDS011;1087;50.226;8.682;2022-12-29T10:22:53;3.90;;;2.67;;
2161;SDS011;1087;50.226;8.682;2022-12-29T10:25:38;3.70;;;3.20;;
2161;SDS011;1087;50.226;8.682;2022-12-29T10:28:06;2.63;;;2.17;;
2161;SDS011;1087;50.226;8.682;2022-12-29T10:30:50;3.90;;;2.40;;
2161;SDS011;1087;50.226;8.682;2022-12-29T10:33:24;4.40;;;2.43;;
2161;SDS011;1087;50.226;8.682;2022-12-29T10:35:56;2.80;;;2.30;;
2161;SDS011;1087;50.226;8.682;2022-12-29T10:38:30;5.73;;;2.40;;
2161;SDS011;1087;50.226;8.682;2022-12-29T10:43:44;3.20;;;2.10;;
2161;SDS011;1087;50.226;8.682;2022-12-29T10:46:13;2.93;;;2.10;;
2161;SDS011;1087;50.226;8.682;2022-12-29T10:48:42;7.00;;;3.20;;
2161;SDS011;1087;50.226;8.682;2022-12-29T10:51:10;3.53;;;2.00;;
2161;SDS011;1087;50.226;8.682;2022-12-29T10:53:45;3.63;;;2.47;;
2161;SDS011;1087;50.226;8.682;2022-12-29T10:56:33;2.30;;;1.90;;
2161;SDS011;1087;50.226;8.682;2022-12-29T10:59:06;3.40;;;2.43;;
2161;SDS011;1087;50.226;8.682;2022-12-29T11:01:48;2.57;;;1.73;;
2161;SDS011;1087;50.226;8.682;2022-12-29T11:07:14;2.73;;;2.53;;
2161;SDS011;1087;50.226;8.682;2022-12-29T11:09:42;1.93;;;1.73;;
2161;SDS011;1087;50.226;8.682;2022-12-29T11:12:18;2.13;;;1.93;;
2161;SDS011;1087;50.226;8.682;2022-12-29T11:15:06;1.73;;;1.63;;
2161;SDS011;1087;50.226;8.682;2022-12-29T11:17:52;1.50;;;1.40;;
2161;SDS011;1087;50.226;8.682;2022-12-29T11:20:31;2.70;;;1.63;;
2161;SDS011;1087;50.226;8.682;2022-12-29T11:23:01;2.00;;;1.40;;
2161;SDS011;1087;50.226;8.682;2022-12-29T11:25:28;1.47;;;1.37;;
2161;SDS011;1087;50.226;8.682;2022-12-29T11:27:59;1.87;;;1.20;;
2161;SDS011;1087;50.226;8.682;2022-12-29T11:30:28;1.33;;;1.07;;
2161;SDS011;1087;50.226;8.682;2022-12-29T11:32:55;1.70;;;1.30;;
2161;SDS011;1087;50.226;8.682;2022-12-29T11:35:41;2.50;;;1.20;;
2161;SDS011;1087;50.226;8.682;2022-12-29T11:38:18;2.10;;;1.33;;
2161;SDS011;1087;50.226;8.682;2022-12-29T11:40:50;1.77;;;0.90;;
2161;SDS011;1087;50.226;8.682;2022-12-29T11:43:20;1.40;;;1.30;;
2161;SDS011;1087;50.226;8.682;2022-12-29T11:46:01;1.50;;;1.37;;
2161;SDS011;1087;50.226;8.682;2022-12-29T11:48:29;1.73;;;1.03;;
2161;SDS011;1087;50.226;8.682;2022-12-29T11:51:03;2.13;;;0.90;;
2161;SDS011;1087;50.226;8.682;2022-12-29T11:53:39;1.43;;;1.17;;
2161;SDS011;1087;50.226;8.682;2022-12-29T11:56:19;2.17;;;1.47;;
2161;SDS011;1087;50.226;8.682;2022-12-29T11:58:48;3.30;;;1.50;;
2161;SDS011;1087;50.226;8.682;2022-12-29T12:01:16;3.03;;;1.20;;
2161;SDS011;1087;50.226;8.682;2022-12-29T12:04:30;1.20;;;1.00;;
2161;SDS011;1087;50.226;8.682;2022-12-29T12:07:02;3.60;;;1.60;;
2161;SDS011;1087;50.226;8.682;2022-12-29T12:09:50;2.83;;;1.30;;
2161;SDS011;1087;50.226;8.682;2022-12-29T12:12:24;2.50;;;1.23;;
2161;SDS011;1087;50.226;8.682;2022-12-29T12:14:59;1.90;;;1.40;;
2161;SDS011;1087;50.226;8.682;2022-12-29T12:17:47;1.60;;;1.43;;
2161;SDS011;1087;50.226;8.682;2022-12-29T12:23:36;3.10;;;1.53;;
2161;SDS011;1087;50.226;8.682;2022-12-29T12:25:59;2.90;;;1.53;;
2161;SDS011;1087;50.226;8.682;2022-12-29T12:28:37;2.23;;;1.20;;
2161;SDS011;1087;50.226;8.682;2022-12-29T12:31:06;1.70;;;1.17;;
2161;SDS011;1087;50.226;8.682;2022-12-29T12:33:57;4.47;;;1.40;;
2161;SDS011;1087;50.226;8.682;2022-12-29T12:39:02;3.40;;;1.60;;
2161;SDS011;1087;50.226;8.682;2022-12-29T12:41:41;2.73;;;1.60;;
2161;SDS011;1087;50.226;8.682;2022-12-29T12:47:23;3.20;;;1.33;;
2161;SDS011;1087;50.226;8.682;2022-12-29T12:50:19;2.27;;;0.90;;
2161;SDS011;1087;50.226;8.682;2022-12-29T12:53:15;2.93;;;1.53;;
2161;SDS011;1087;50.226;8.682;2022-12-29T12:56:10;3.40;;;2.00;;
2161;SDS011;1087;50.226;8.682;2022-12-29T12:58:43;2.97;;;1.90;;
2161;SDS011;1087;50.226;8.682;2022-12-29T13:05:07;2.80;;;1.67;;
2161;SDS011;1087;50.226;8.682;2022-12-29T13:16:08;1.50;;;1.40;;
2161;SDS011;1087;50.226;8.682;2022-12-29T13:23:58;2.73;;;1.20;;
2161;SDS011;1087;50.226;8.682;2022-12-29T13:26:29;2.07;;;1.50;;
2161;SDS011;1087;50.226;8.682;2022-12-29T13:32:03;2.57;;;1.20;;
2161;SDS011;1087;50.226;8.682;2022-12-29T13:37:09;1.80;;;1.70;;
2161;SDS011;1087;50.226;8.682;2022-12-29T13:39:40;1.60;;;1.40;;
2161;SDS011;1087;50.226;8.682;2022-12-29T13:42:12;2.00;;;1.50;;
2161;SDS011;1087;50.226;8.682;2022-12-29T13:44:46;2.67;;;1.90;;
2161;SDS011;1087;50.226;8.682;2022-12-29T13:47:37;2.40;;;1.57;;
2161;SDS011;1087;50.226;8.682;2022-12-29T13:50:23;3.53;;;1.50;;
2161;SDS011;1087;50.226;8.682;2022-12-29T13:52:55;2.10;;;1.50;;
2161;SDS011;1087;50.226;8.682;2022-12-29T13:55:29;4.70;;;1.57;;
2161;SDS011;1087;50.226;8.682;2022-12-29T13:58:09;1.83;;;1.40;;
2161;SDS011;1087;50.226;8.682;2022-12-29T14:01:12;6.80;;;1.90;;
2161;SDS011;1087;50.226;8.682;2022-12-29T14:08:50;2.87;;;1.80;;
2161;SDS011;1087;50.226;8.682;2022-12-29T14:11:17;2.93;;;1.37;;
2161;SDS011;1087;50.226;8.682;2022-12-29T14:13:49;2.63;;;1.47;;
2161;SDS011;1087;50.226;8.682;2022-12-29T14:16:31;2.40;;;1.37;;
2161;SDS011;1087;50.226;8.682;2022-12-29T14:19:19;2.90;;;1.70;;
2161;SDS011;1087;50.226;8.682;2022-12-29T14:21:52;1.90;;;1.30;;
2161;SDS011;1087;50.226;8.682;2022-12-29T14:24:27;3.00;;;1.40;;
2161;SDS011;1087;50.226;8.682;2022-12-29T14:34:48;2.13;;;1.70;;
2161;SDS011;1087;50.226;8.682;2022-12-29T14:37:27;3.50;;;1.73;;
2161;SDS011;1087;50.226;8.682;2022-12-29T14:42:48;3.40;;;1.80;;
2161;SDS011;1087;50.226;8.682;2022-12-29T14:47:51;3.50;;;1.60;;
2161;SDS011;1087;50.226;8.682;2022-12-29T14:50:25;2.83;;;1.73;;
2161;SDS011;1087;50.226;8.682;2022-12-29T14:56:08;1.70;;;1.60;;
2161;SDS011;1087;50.226;8.682;2022-12-29T14:58:42;2.10;;;1.77;;
2161;SDS011;1087;50.226;8.682;2022-12-29T15:01:27;2.67;;;1.50;;
2161;SDS011;1087;50.226;8.682;2022-12-29T15:04:06;2.60;;;1.60;;
2161;SDS011;1087;50.226;8.682;2022-12-29T15:06:43;4.13;;;1.97;;
2161;SDS011;1087;50.226;8.682;2022-12-29T15:09:14;1.87;;;1.60;;
2161;SDS011;1087;50.226;8.682;2022-12-29T15:11:54;3.47;;;1.73;;
2161;SDS011;1087;50.226;8.682;2022-12-29T15:16:59;2.27;;;1.30;;
2161;SDS011;1087;50.226;8.682;2022-12-29T15:19:26;2.10;;;1.70;;
2161;SDS011;1087;50.226;8.682;2022-12-29T15:21:52;3.10;;;1.47;;
2161;SDS011;1087;50.226;8.682;2022-12-29T15:24:19;2.77;;;1.17;;
2161;SDS011;1087;50.226;8.682;2022-12-29T15:26:46;3.33;;;1.37;;
2161;SDS011;1087;50.226;8.682;2022-12-29T15:29:30;2.80;;;1.47;;
2161;SDS011;1087;50.226;8.682;2022-12-29T15:34:40;2.13;;;1.40;;
2161;SDS011;1087;50.226;8.682;2022-12-29T15:37:17;3.20;;;1.50;;
2161;SDS011;1087;50.226;8.682;2022-12-29T15:39:45;2.53;;;1.40;;
2161;SDS011;1087;50.226;8.682;2022-12-29T15:42:32;2.50;;;1.50;;
2161;SDS011;1087;50.226;8.682;2022-12-29T15:45:12;4.37;;;1.70;;
2161;SDS011;1087;50.226;8.682;2022-12-29T15:47:39;2.53;;;1.60;;
2161;SDS011;1087;50.226;8.682;2022-12-29T15:52:39;7.60;;;2.03;;
2161;SDS011;1087;50.226;8.682;2022-12-29T15:55:05;3.67;;;1.60;;
2161;SDS011;1087;50.226;8.682;2022-12-29T15:57:42;3.20;;;1.47;;
2161;SDS011;1087;50.226;8.682;2022-12-29T16:00:24;2.57;;;1.57;;
2161;SDS011;1087;50.226;8.682;2022-12-29T16:03:01;1.63;;;1.30;;
2161;SDS011;1087;50.226;8.682;2022-12-29T16:05:31;1.70;;;1.40;;
2161;SDS011;1087;50.226;8.682;2022-12-29T16:08:01;2.60;;;1.30;;
2161;SDS011;1087;50.226;8.682;2022-12-29T16:10:32;2.60;;;1.60;;
2161;SDS011;1087;50.226;8.682;2022-12-29T16:13:04;3.93;;;1.43;;
2161;SDS011;1087;50.226;8.682;2022-12-29T16:15:49;2.07;;;1.40;;
2161;SDS011;1087;50.226;8.682;2022-12-29T16:18:21;2.20;;;1.73;;
2161;SDS011;1087;50.226;8.682;2022-12-29T16:20:51;3.77;;;1.30;;
2161;SDS011;1087;50.226;8.682;2022-12-29T16:23:19;5.40;;;1.77;;
2161;SDS011;1087;50.226;8.682;2022-12-29T16:25:48;2.73;;;1.50;;
2161;SDS011;1087;50.226;8.682;2022-12-29T16:28:17;3.50;;;1.90;;
2161;SDS011;1087;50.226;8.682;2022-12-29T16:30:46;4.70;;;2.30;;
2161;SDS011;1087;50.226;8.682;2022-12-29T16:36:30;4.20;;;1.70;;
2161;SDS011;1087;50.226;8.682;2022-12-29T16:42:32;4.33;;;1.80;;
2161;SDS011;1087;50.226;8.682;2022-12-29T16:45:09;3.10;;;1.87;;
2161;SDS011;1087;50.226;8.682;2022-12-29T16:47:46;2.90;;;1.80;;
2161;SDS011;1087;50.226;8.682;2022-12-29T16:50:18;5.20;;;2.10;;
2161;SDS011;1087;50.226;8.682;2022-12-29T16:52:48;3.50;;;1.80;;
2161;SDS011;1087;50.226;8.682;2022-12-29T16:55:15;4.07;;;1.60;;
2161;SDS011;1087;50.226;8.682;2022-12-29T16:57:43;4.57;;;2.10;;
2161;SDS011;1087;50.226;8.682;2022-12-29T17:00:21;5.13;;;1.73;;
2161;SDS011;1087;50.226;8.682;2022-12-29T17:02:52;2.60;;;1.43;;
2161;SDS011;1087;50.226;8.682;2022-12-29T17:05:20;6.13;;;1.90;;
2161;SDS011;1087;50.226;8.682;2022-12-29T17:07:46;2.10;;;1.40;;
2161;SDS011;1087;50.226;8.682;2022-12-29T17:10:13;4.03;;;1.70;;
2161;SDS011;1087;50.226;8.682;2022-12-29T17:12:39;3.77;;;1.40;;
2161;SDS011;1087;50.226;8.682;2022-12-29T17:15:10;3.13;;;1.30;;
2161;SDS011;1087;50.226;8.682;2022-12-29T17:17:44;3.77;;;1.30;;
2161;SDS011;1087;50.226;8.682;2022-12-29T17:20:18;3.27;;;1.40;;
2161;SDS011;1087;50.226;8.682;2022-12-29T17:22:44;1.90;;;1.73;;
2161;SDS011;1087;50.226;8.682;2022-12-29T17:25:17;5.03;;;1.60;;
2161;SDS011;1087;50.226;8.682;2022-12-29T17:27:58;6.70;;;1.80;;
2161;SDS011;1087;50.226;8.682;2022-12-29T17:30:27;3.70;;;2.03;;
2161;SDS011;1087;50.226;8.682;2022-12-29T17:33:01;4.10;;;1.83;;
2161;SDS011;1087;50.226;8.682;2022-12-29T17:35:32;6.13;;;3.80;;
2161;SDS011;1087;50.226;8.682;2022-12-29T17:37:58;4.07;;;1.97;;
2161;SDS011;1087;50.226;8.682;2022-12-29T17:40:24;5.23;;;2.23;;
2161;SDS011;1087;50.226;8.682;2022-12-29T17:42:53;4.40;;;2.07;;